17 de agosto de 2022

Hora Código Tiempo Temp. Visibilidad Cielo nuboso Viento METAR/SPECI
15:20
V
28 °C 10 km+ - 100° 100° 7 kt METAR EDDH 171320Z AUTO 10007KT 070V150 CAVOK 28/15 Q1011 NOSIG
14:50
V
29 °C 10 km+ - 090° 090° 7 kt METAR EDDH 171250Z AUTO 09007KT 060V120 CAVOK 29/15 Q1011 NOSIG
14:20
V
29 °C 10 km+ - 110° 110° 5 kt METAR EDDH 171220Z AUTO 11005KT 030V190 CAVOK 29/15 Q1011 NOSIG
13:50
V
29 °C 10 km+ - 090° 090° 6 kt METAR EDDH 171150Z AUTO 09006KT 070V150 CAVOK 29/15 Q1011 NOSIG
13:20
V
29 °C 10 km+ - 100° 100° 8 kt METAR EDDH 171120Z AUTO 10008KT 070V140 CAVOK 29/15 Q1012 NOSIG
12:50
V
29 °C 10 km+ - 120° 120° 7 kt METAR EDDH 171050Z AUTO 12007KT 040V200 CAVOK 29/15 Q1012 NOSIG
12:20
V
29 °C 10 km+ - 130° 130° 5 kt METAR EDDH 171020Z AUTO 13005KT 040V210 CAVOK 29/16 Q1012 NOSIG
11:50
V
28 °C 10 km+ - 070° 070° 6 kt METAR EDDH 170950Z AUTO 07006KT 020V110 CAVOK 28/16 Q1012 NOSIG
11:20
V
28 °C 10 km+ - 070° 070° 5 kt METAR EDDH 170920Z AUTO 07005KT 020V120 CAVOK 28/17 Q1012 NOSIG
10:50
V
27 °C 10 km+ - 070° 070° 3 kt METAR EDDH 170850Z AUTO 07003KT 020V180 CAVOK 27/18 Q1012 NOSIG
10:20
V
26 °C 10 km+ - 050° 050° 5 kt METAR EDDH 170820Z AUTO 05005KT CAVOK 26/17 Q1012 NOSIG
09:50
V
25 °C 10 km+ - 050° 050° 3 kt METAR EDDH 170750Z AUTO 05003KT 010V100 CAVOK 25/17 Q1011 NOSIG
09:20
V
24 °C 10 km+ - Var Var 2 kt METAR EDDH 170720Z AUTO VRB02KT CAVOK 24/17 Q1011 TEMPO 06005KT
08:50
V
23 °C 10 km+ - 060° 060° 3 kt METAR EDDH 170650Z AUTO 06003KT CAVOK 23/17 Q1011 NOSIG
08:20
V
21 °C 10 km+ - 060° 060° 3 kt METAR EDDH 170620Z AUTO 06003KT CAVOK 21/17 Q1011 NOSIG
07:50
V
20 °C 10 km+ - 060° 060° 3 kt METAR EDDH 170550Z AUTO 06003KT CAVOK 20/17 Q1011 NOSIG
07:20
V
18 °C 10 km+ - Var 000° 0 kt METAR EDDH 170520Z AUTO 00000KT CAVOK 18/16 Q1011 NOSIG
06:50
V
16 °C 9 km - 340° 340° 1 kt METAR EDDH 170450Z AUTO 34001KT 9000 NSC 16/16 Q1011 NOSIG
06:20
I
16 °C 1,8 km - Var 000° 0 kt METAR EDDH 170420Z AUTO 00000KT 7000 1800 R15/0900U BR NSC 16/16 Q1011 TEMPO 3000
05:50
L
15 °C 700 m - Var Var 1 kt METAR EDDH 170350Z AUTO VRB01KT 9000 0700 R23/P2000N R15/1000U BCFG NSC 15/14 Q1011 TEMPO 3000
05:20
L
16 °C 900 m - 320° 320° 3 kt METAR EDDH 170320Z AUTO 32003KT 9999 0900 R23/P2000N R15/1300D BCFG NSC 16/15 Q1011 TEMPO 1200
04:50
I
16 °C 2,9 km - 330° 330° 3 kt METAR EDDH 170250Z AUTO 33003KT 9000 2900 BR NSC 16/15 Q1011 TEMPO 1200
04:20
L
16 °C 350 m - Var Var 1 kt METAR EDDH 170220Z AUTO VRB01KT 8000 0350 R23/P2000N R15/0500N BCFG NCD 16/15 Q1011 TEMPO 1200
03:50
I
17 °C 1,7 km - Var Var 1 kt METAR EDDH 170150Z AUTO VRB01KT 9999 1700 BR NCD 17/16 Q1011 TEMPO 3000 BCFG
03:20
I
16 °C 2,3 km - 340° 340° 2 kt METAR EDDH 170120Z AUTO 34002KT 9999 2300 BR NCD 16/15 Q1011 TEMPO 3000 BCFG
02:50
I
18 °C 1,6 km - 310° 310° 1 kt METAR EDDH 170050Z AUTO 31001KT 9999 1600 BR NSC 18/17 Q1011 BECMG 3000 BCFG
02:20
V
18 °C 10 km+ - 290° 290° 1 kt METAR EDDH 170020Z AUTO 29001KT CAVOK 18/16 Q1011 NOSIG
01:50
V
18 °C 10 km+ - 300° 300° 2 kt METAR EDDH 162350Z AUTO 30002KT CAVOK 18/17 Q1011 NOSIG
01:20
V
19 °C 10 km+ - 320° 320° 4 kt METAR EDDH 162320Z AUTO 32004KT CAVOK 19/16 Q1011 NOSIG
00:50
V
19 °C 10 km+ - 340° 340° 4 kt METAR EDDH 162250Z AUTO 34004KT CAVOK 19/16 Q1011 NOSIG
00:20
V
20 °C 10 km+ - 330° 330° 3 kt METAR EDDH 162220Z AUTO 33003KT CAVOK 20/16 Q1011 NOSIG

16 de agosto de 2022

Hora Código Tiempo Temp. Visibilidad Cielo nuboso Viento METAR/SPECI
23:50
V
22 °C 10 km+ - 330° 330° 5 kt METAR EDDH 162150Z AUTO 33005KT CAVOK 22/17 Q1011 NOSIG
23:20
V
22 °C 10 km+ - 320° 320° 6 kt METAR EDDH 162120Z AUTO 32006KT CAVOK 22/16 Q1010 NOSIG
22:50
V
23 °C 10 km+ - 340° 340° 5 kt METAR EDDH 162050Z AUTO 34005KT CAVOK 23/16 Q1010 NOSIG
22:20
V
23 °C 10 km+ - 320° 320° 5 kt METAR EDDH 162020Z AUTO 32005KT CAVOK 23/17 Q1010 NOSIG
21:50
V
24 °C 10 km+ - 170° 170° 3 kt METAR EDDH 161950Z AUTO 17003KT CAVOK 24/16 Q1010 NOSIG
21:20
V
25 °C 10 km+ - 160° 160° 6 kt METAR EDDH 161920Z AUTO 16006KT CAVOK 25/16 Q1009 NOSIG
20:50
V
26 °C 10 km+ - 150° 150° 4 kt METAR EDDH 161850Z AUTO 15004KT 090V160 CAVOK 26/16 Q1009
20:20
V
26 °C 10 km+ - 150° 150° 5 kt METAR EDDH 161820Z AUTO 15005KT 100V190 CAVOK 26/16 Q1009 NOSIG
19:50
V
27 °C 10 km+ - 280° 280° 4 kt METAR EDDH 161750Z AUTO 28004KT CAVOK 27/15 Q1009 NOSIG
19:20
V
28 °C 10 km+ - 270° 270° 7 kt METAR EDDH 161720Z AUTO 27007KT CAVOK 28/15 Q1008
18:50
V
29 °C 10 km+ - 290° 290° 7 kt METAR EDDH 161650Z AUTO 29007KT 250V320 CAVOK 29/14 Q1008 NOSIG
18:20
V
29 °C 10 km+ - 230° 230° 6 kt METAR EDDH 161620Z AUTO 23006KT 200V280 CAVOK 29/14 Q1008 NOSIG
17:50
V
29 °C 10 km+ - 240° 240° 5 kt METAR EDDH 161550Z AUTO 24005KT 200V290 CAVOK 29/15 Q1008 NOSIG
17:20
V
28 °C 10 km+ - 220° 220° 10 kt METAR EDDH 161520Z AUTO 22010KT 200V260 CAVOK 28/14 Q1008 NOSIG
16:50
V
29 °C 10 km+ - 240° 240° 11 kt METAR EDDH 161450Z AUTO 24011KT 210V270 CAVOK 29/14 Q1008 NOSIG
16:20
V
29 °C 10 km+ - 220° 220° 8 kt METAR EDDH 161420Z AUTO 22008KT 190V290 CAVOK 29/14 Q1008 NOSIG
15:50
V
28 °C 10 km+ - 240° 240° 6 kt METAR EDDH 161350Z AUTO 24006KT 140V300 CAVOK 28/15 Q1008 NOSIG
15:20
V
28 °C 10 km+ - 240° 240° 10 kt METAR EDDH 161320Z AUTO 24010KT 200V280 9999 VCSH FEW043 FEW///TCU 28/16 Q1008 RESHRA NOSIG
14:50
V
27 °C 10 km+ - 200° 200° 12 kt METAR EDDH 161250Z AUTO 20012KT 160V230 9999 VCSH FEW///TCU 27/17 Q1008 NOSIG
14:20
V
26 °C 10 km+ - 220° 220° 13 kt METAR EDDH 161220Z AUTO 22013KT 9999 -SHRA VCTS SCT049 FEW///CB 26/17 Q1008 RESHRA TEMPO 24015G30KT 4500 TSRA
13:50
V
27 °C 10 km+ - 230° 230° 7 kt METAR EDDH 161150Z AUTO 23007KT 200V270 9999 -SHRA FEW043 FEW///CB 27/16 Q1008 TEMPO 22015G30KT 4500 TSRA
13:20
V
27 °C 10 km+ - 220° 220° 9 kt METAR EDDH 161120Z AUTO 22009KT 190V260 9999 FEW042 27/16 Q1007 NOSIG
12:50
V
26 °C 10 km+ - 240° 240° 10 kt METAR EDDH 161050Z AUTO 24010KT 200V280 9999 SCT039 26/16 Q1007 NOSIG
12:20
V
27 °C 10 km+ - 220° 220° 9 kt METAR EDDH 161020Z AUTO 22009KT 180V270 9999 FEW039 27/16 Q1007 NOSIG
11:50
V
27 °C 10 km+ - 240° 240° 8 kt METAR EDDH 160950Z AUTO 24008KT 200V280 CAVOK 27/17 Q1007 NOSIG
11:20
V
26 °C 10 km+ - 240° 240° 6 kt METAR EDDH 160920Z AUTO 24006KT 180V290 9999 FEW033 26/16 Q1007 NOSIG
10:50
V
25 °C 10 km+ - 250° 250° 6 kt METAR EDDH 160850Z AUTO 25006KT 190V280 CAVOK 25/16 Q1007 NOSIG
10:20
V
24 °C 10 km+ - 260° 260° 9 kt METAR EDDH 160820Z AUTO 26009KT 210V300 CAVOK 24/17 Q1007 NOSIG
09:50
V
23 °C 10 km+ - 250° 250° 6 kt METAR EDDH 160750Z AUTO 25006KT 190V290 CAVOK 23/17 Q1007 NOSIG
09:20
V
21 °C 10 km+ - 220° 220° 5 kt METAR EDDH 160720Z AUTO 22005KT CAVOK 21/18 Q1006 NOSIG
08:50
V
21 °C 10 km+ - 220° 220° 6 kt METAR EDDH 160650Z AUTO 22006KT CAVOK 21/18 Q1006 NOSIG
08:20
V
20 °C 10 km+ - 230° 230° 5 kt METAR EDDH 160620Z AUTO 23005KT CAVOK 20/18 Q1006 NOSIG
07:50
V
19 °C 10 km+ - 230° 230° 5 kt METAR EDDH 160550Z AUTO 23005KT CAVOK 19/18 Q1006 NOSIG
07:20
V
19 °C 10 km+ - 210° 210° 5 kt METAR EDDH 160520Z AUTO 21005KT CAVOK 19/18 Q1006
06:50
V
18 °C 10 km+ - 210° 210° 2 kt METAR EDDH 160450Z AUTO 21002KT CAVOK 18/18 Q1005 NOSIG
06:20
V
18 °C 10 km+ - Var Var 2 kt METAR EDDH 160420Z AUTO VRB02KT CAVOK 18/18 Q1005 NOSIG
05:50
V
18 °C 10 km+ - 220° 220° 4 kt METAR EDDH 160350Z AUTO 22004KT CAVOK 18/17 Q1005 NOSIG
05:20
V
18 °C 10 km+ - 230° 230° 4 kt METAR EDDH 160320Z AUTO 23004KT CAVOK 18/17 Q1005 NOSIG
04:50
V
19 °C 10 km+ - 220° 220° 5 kt METAR EDDH 160250Z AUTO 22005KT CAVOK 19/18 Q1005 NOSIG
04:20
V
19 °C 10 km+ - 220° 220° 4 kt METAR EDDH 160220Z AUTO 22004KT CAVOK 19/18 Q1005 NOSIG
03:50
V
20 °C 10 km+ - 200° 200° 3 kt METAR EDDH 160150Z AUTO 20003KT 180V240 9999 -SHRA FEW///TCU 20/18 Q1005 NOSIG
03:20
V
20 °C 10 km+ - 200° 200° 3 kt METAR EDDH 160120Z AUTO 20003KT 9999 -SHRA FEW///TCU 20/18 Q1005 NOSIG
02:50
V
20 °C 10 km+ - 200° 200° 3 kt METAR EDDH 160050Z AUTO 20003KT 140V290 9999 -SHRA FEW///CB 20/18 Q1005 RESHRA NOSIG
02:20
V
21 °C 10 km+ - 200° 200° 5 kt METAR EDDH 160020Z AUTO 20005KT 9999 -SHRA FEW044 FEW///CB 21/17 Q1004 RESHRA TEMPO SHRA
01:50
V
22 °C 10 km+ - 240° 240° 4 kt METAR EDDH 152350Z AUTO 24004KT 9999 -SHRA FEW///CB 22/17 Q1004 NOSIG
01:20
V
22 °C 10 km+ - 230° 230° 7 kt METAR EDDH 152320Z AUTO 23007KT 9999 VCSH FEW///CB 22/17 Q1005 NOSIG
00:50
V
22 °C 10 km+ - 220° 220° 5 kt METAR EDDH 152250Z AUTO 22005KT CAVOK 22/17 Q1005 NOSIG
00:20
V
22 °C 10 km+ - 210° 210° 5 kt METAR EDDH 152220Z AUTO 21005KT CAVOK 22/17 Q1005 NOSIG

15 de agosto de 2022

Hora Código Tiempo Temp. Visibilidad Cielo nuboso Viento METAR/SPECI
23:50
V
22 °C 10 km+ - 220° 220° 5 kt METAR EDDH 152150Z AUTO 22005KT CAVOK 22/18 Q1005 NOSIG
23:20
V
22 °C 10 km+ - 220° 220° 4 kt METAR EDDH 152120Z AUTO 22004KT CAVOK 22/18 Q1004 NOSIG
22:50
V
22 °C 10 km+ - 230° 230° 6 kt METAR EDDH 152050Z AUTO 23006KT CAVOK 22/17 Q1004 NOSIG
22:20
V
22 °C 10 km+ - 210° 210° 3 kt METAR EDDH 152020Z AUTO 21003KT 170V230 CAVOK 22/17 Q1004 NOSIG
21:50
V
22 °C 10 km+ - 230° 230° 2 kt METAR EDDH 151950Z AUTO 23002KT 9999 VCSH FEW///TCU 22/17 Q1004 NOSIG
21:20
V
23 °C 10 km+ - Var Var 2 kt METAR EDDH 151920Z AUTO VRB02KT CAVOK 23/17 Q1004 NOSIG
20:50
V
23 °C 10 km+ - 240° 240° 4 kt METAR EDDH 151850Z AUTO 24004KT CAVOK 23/18 Q1004 NOSIG
20:20
V
23 °C 10 km+ - 230° 230° 6 kt METAR EDDH 151820Z AUTO 23006KT 9999 -SHRA FEW///TCU 23/17 Q1004 RESHRA TEMPO SHRA
19:50
V
24 °C 10 km+ - 210° 210° 10 kt METAR EDDH 151750Z AUTO 21010KT 9999 SHRA FEW///TCU 24/17 Q1003 TEMPO 4000
19:20
V
25 °C 10 km+ - 220° 220° 12 kt METAR EDDH 151720Z AUTO 22012KT CAVOK 25/17 Q1003 TEMPO 4000 SHRA
18:50
V
25 °C 10 km+ - 210° 210° 11 kt METAR EDDH 151650Z AUTO 21011KT 9999 -SHRA VCTS FEW///CB 25/17 Q1003 TEMPO 27020G35KT 4000 TSRA
18:20
V
26 °C 10 km+ - Var Var 2 kt METAR EDDH 151620Z AUTO VRB02KT 9999 -SHRA FEW///TCU 26/18 Q1003 TEMPO 27020G35KT 4000 TSRA BKN040CB
17:50
V
27 °C 10 km+ - Var Var 5 kt METAR EDDH 151550Z AUTO VRB05KT 9999 FEW049 27/17 Q1003 TEMPO 18020G35KT 4000 TSRA BKN040CB
17:20
V
28 °C 10 km+ - 050° 050° 7 kt METAR EDDH 151520Z AUTO 05007KT 9999 VCSH FEW///CB 28/17 Q1003 TEMPO 18020G35KT 4000 TSRA
16:50
V
30 °C 10 km+ - 060° 060° 11 kt METAR EDDH 151450Z AUTO 06011KT 9999 VCSH FEW///CB 30/18 Q1002 TEMPO 18020G35KT 4000 TSRA
16:20
V
31 °C 10 km+ - 090° 090° 12 kt METAR EDDH 151420Z AUTO 09012KT 050V110 CAVOK 31/16 Q1003 TEMPO 18020G35KT 4000 TSRA BKN040CB
15:50
V
30 °C 10 km+ - 060° 060° 12 kt METAR EDDH 151350Z AUTO 06012KT 030V090 CAVOK 30/16 Q1002 TEMPO 18020G35KT 4000 TSRA BKN040CB
Datos más antiguos

Nosotros y terceros seguimos tu comportamiento en Internet en nuestro sitio web con cookies. Si continúas, asumimos que estás de acuerdo con nuestra política de cookies. Más información